Pageland, South Carolina
Current Conditions -  °F | °C
As of 5:53 AM on Wednesday 22 Oct 2014 (Local Time) from KEQY Reporting Station
Clear Clear  
Wind Chill: 10°   Ceiling: Unl
Heat Index: 10°   Visibility: 10mi
Dew Point:   Wind: 8mph
Humidity: 61%   Direction: 350°N
Pressure: 29.99"   Gusts: NA
Location:  34.77°N, 80.39°W
Report Text: KEQY 220953Z AUTO 35007KT 10SM CLR 10/03 A2999 RMK AO2 SLP161 T01000028
Loading
Personal Weather Stations






























Interactive Weather Map
Tropical Storm Tracking
New forecast layout! Learn more

10-Day Weather Forecast

Advertisements
Track Severe Weather on mobile